Time;durP1;ratioP1;P1;durP2;ratioP2;P2;SDS_P1;SDS_P2;PMS_P1;PMS_P2;Temp;Humidity;BMP_temperature;BMP_pressure;BME280_temperature;BME280_humidity;BME280_pressure;Samples;Min_cycle;Max_cycle;Signal;HPM_P1;HPM_P2
2022/04/22 00:01:30;;;;;;;9.73;7.85;;;;;;;8.60;68.53;100763.91;6156423;23;20001;-79
2022/04/22 00:11:51;;;;;;;10.48;8.00;;;;;;;8.43;69.23;100741.69;6200885;22;20032;-79
2022/04/22 00:14:17;;;;;;;11.75;8.32;;;;;;;8.69;69.86;100786.56;6182441;23;20017;-80
2022/04/22 00:16:45;;;;;;;13.43;8.48;;;;;;;9.24;70.05;100883.09;6186307;23;20028;-79
2022/04/22 00:19:35;;;;;;;13.73;8.82;;;;;;;9.46;69.75;100929.94;6160583;23;20370;-79
2022/04/22 00:22:13;;;;;;;13.15;9.02;;;;;;;8.98;69.87;100857.06;6186681;23;20001;-79
2022/04/22 00:24:45;;;;;;;14.00;9.10;;;;;;;8.18;70.56;100721.59;6159990;23;20005;-79
2022/04/22 00:29:51;;;;;;;14.15;9.15;;;;;;;8.61;70.89;100804.19;6185779;22;19962;-79
2022/04/22 00:32:17;;;;;;;13.25;8.57;;;;;;;8.25;71.35;100745.22;6186128;23;20411;-79
2022/04/22 00:34:57;;;;;;;13.85;9.35;;;;;;;8.02;71.14;100718.19;6186938;23;20056;-79
2022/04/22 00:37:36;;;;;;;15.17;8.93;;;;;;;8.80;71.47;100846.03;6186889;23;20322;-79
2022/04/22 00:40:16;;;;;;;13.48;9.48;;;;;;;7.97;72.08;100710.75;6186613;23;20005;-80
2022/04/22 00:42:42;;;;;;;13.40;8.70;;;;;;;9.07;72.00;100902.91;6186851;23;20016;-79
2022/04/22 00:45:13;;;;;;;14.75;9.57;;;;;;;9.04;72.49;100897.91;6186354;23;20001;-79
2022/04/22 00:48:03;;;;;;;13.07;8.63;;;;;;;9.13;72.80;100910.28;6186132;23;20005;-77
2022/04/22 00:50:44;;;;;;;16.13;9.43;;;;;;;8.67;72.55;100831.34;6160416;23;20012;-80
2022/04/22 00:53:10;;;;;;;13.57;9.05;;;;;;;9.06;73.53;100906.41;6158869;23;20012;-81
2022/04/22 00:55:38;;;;;;;12.50;9.45;;;;;;;8.81;73.55;100863.13;6159908;23;20029;-79
2022/04/22 00:58:04;;;;;;;14.75;9.65;;;;;;;9.02;73.87;100896.34;6186578;23;20005;-78
2022/04/22 01:00:30;;;;;;;16.25;9.63;;;;;;;8.99;73.98;100893.94;6186195;23;20012;-79
2022/04/22 01:02:55;;;;;;;15.20;9.57;;;;;;;8.96;74.15;100894.94;6186311;23;20005;-79
2022/04/22 01:10:52;;;;;;;13.63;9.35;;;;;;;8.78;74.98;100880.50;6186231;23;20044;-80
2022/04/22 01:13:18;;;;;;;16.42;9.68;;;;;;;8.82;75.26;100881.97;6185709;23;20005;-79
2022/04/22 01:15:43;;;;;;;15.18;10.00;;;;;;;8.81;75.18;100888.88;6185968;23;20012;-79
2022/04/22 01:18:10;;;;;;;14.52;10.02;;;;;;;8.78;75.59;100890.81;6186134;23;20008;-79
2022/04/22 01:20:35;;;;;;;15.85;10.18;;;;;;;8.75;75.51;100885.81;6186429;23;20005;-79
2022/04/22 01:23:01;;;;;;;14.70;10.20;;;;;;;8.74;76.02;100881.56;6186551;23;20027;-79
2022/04/22 01:25:26;;;;;;;15.73;10.43;;;;;;;8.75;75.98;100884.09;6186112;23;20005;-80
2022/04/22 01:27:52;;;;;;;16.13;10.00;;;;;;;8.73;76.30;100882.47;6185844;23;20017;-79
2022/04/22 01:30:22;;;;;;;14.35;10.57;;;;;;;8.73;76.39;100879.91;6186218;23;20089;-79
2022/04/22 01:32:51;;;;;;;15.05;10.70;;;;;;;8.36;76.74;100815.00;6185577;23;20001;-79
2022/04/22 01:35:18;;;;;;;14.23;10.23;;;;;;;8.66;77.00;100876.84;6185967;23;20001;-78
2022/04/22 01:37:43;;;;;;;17.88;11.25;;;;;;;8.54;77.10;100854.34;6186032;23;20015;-79
2022/04/22 01:40:10;;;;;;;15.45;10.25;;;;;;;8.45;77.15;100842.78;6186037;23;20377;-81
2022/04/22 01:42:36;;;;;;;16.08;10.73;;;;;;;8.57;77.50;100867.06;6185930;23;20001;-80
2022/04/22 01:45:02;;;;;;;13.68;10.20;;;;;;;8.51;77.90;100869.94;6186160;23;20008;-80
2022/04/22 01:47:29;;;;;;;16.17;11.30;;;;;;;8.33;78.02;100839.09;6185760;23;20009;-79
2022/04/22 01:49:55;;;;;;;14.98;11.27;;;;;;;8.46;78.04;100864.22;6186019;23;20069;-79
2022/04/22 01:52:20;;;;;;;17.10;11.10;;;;;;;8.43;78.37;100869.53;6186201;23;20426;-79
2022/04/22 01:54:45;;;;;;;16.27;11.02;;;;;;;8.24;78.54;100842.16;6185853;23;20001;-78
2022/04/22 01:57:12;;;;;;;14.80;11.13;;;;;;;7.29;78.45;100696.38;6189959;22;20001;-77
2022/04/22 01:59:37;;;;;;;15.73;11.88;;;;;;;7.65;78.80;100753.56;6185957;23;20020;-78
2022/04/22 02:02:03;;;;;;;16.08;11.48;;;;;;;7.85;78.94;100779.97;6185654;23;20088;-79
2022/04/22 02:04:28;;;;;;;15.93;11.68;;;;;;;8.11;78.89;100817.19;6185707;23;20089;-77
2022/04/22 02:06:54;;;;;;;15.82;11.60;;;;;;;8.33;79.26;100859.69;6186087;23;20044;-79
2022/04/22 02:09:19;;;;;;;17.30;11.85;;;;;;;8.28;79.24;100855.72;6185663;23;20005;-80
2022/04/22 02:11:44;;;;;;;18.15;12.40;;;;;;;7.80;79.56;100785.38;6186014;23;20418;-81
2022/04/22 02:14:09;;;;;;;17.38;12.07;;;;;;;8.08;79.54;100835.34;6185639;23;20442;-78
2022/04/22 02:16:35;;;;;;;18.27;12.10;;;;;;;8.24;79.91;100873.03;6158750;23;20005;-79
2022/04/22 02:19:00;;;;;;;15.98;11.68;;;;;;;8.13;79.96;100852.19;6185552;23;20001;-81
2022/04/22 02:21:26;;;;;;;17.98;12.10;;;;;;;8.17;80.10;100863.16;6185439;23;20043;-82
2022/04/22 02:23:51;;;;;;;15.70;11.93;;;;;;;8.17;80.55;100871.72;6185729;23;20423;-81
2022/04/22 02:26:16;;;;;;;15.35;11.32;;;;;;;7.96;80.59;100831.66;6185822;23;20012;-81
2022/04/22 02:28:42;;;;;;;17.73;12.80;;;;;;;8.14;80.77;100865.88;6185853;23;20036;-80
2022/04/22 02:31:09;;;;;;;17.38;12.32;;;;;;;8.11;81.05;100866.03;6158495;23;20009;-79
2022/04/22 02:33:36;;;;;;;16.85;12.07;;;;;;;8.05;81.18;100874.91;6158913;23;20737;-80
2022/04/22 02:36:03;;;;;;;18.52;12.88;;;;;;;7.94;81.30;100851.47;6159078;23;20016;-81
2022/04/22 02:38:30;;;;;;;16.67;11.65;;;;;;;7.86;81.60;100841.59;6185860;23;20009;-80
2022/04/22 02:46:27;;;;;;;17.20;12.30;;;;;;;7.85;82.02;100824.50;6185246;23;20020;-78
2022/04/22 02:49:00;;;;;;;17.65;12.38;;;;;;;7.76;82.00;100817.25;6185300;23;20012;-80
2022/04/22 02:51:27;;;;;;;21.40;12.82;;;;;;;7.93;82.09;100845.50;6185093;23;20005;-81
2022/04/22 02:53:54;;;;;;;18.65;13.32;;;;;;;7.67;82.20;100812.59;6185316;23;20055;-80
2022/04/22 02:56:20;;;;;;;19.95;13.57;;;;;;;7.86;82.71;100843.31;6185612;23;20085;-80
2022/04/22 02:58:46;;;;;;;17.77;13.45;;;;;;;7.61;83.08;100800.91;6185433;23;20032;-80
2022/04/22 03:01:14;;;;;;;18.83;13.52;;;;;;;7.87;82.90;100839.88;6185097;23;20322;-79
2022/04/22 03:03:39;;;;;;;17.38;12.95;;;;;;;7.70;83.13;100815.03;6185209;23;20001;-79
2022/04/22 03:06:04;;;;;;;19.73;13.32;;;;;;;7.83;83.12;100833.22;6184295;23;20440;-79
2022/04/22 03:08:30;;;;;;;18.67;13.48;;;;;;;7.67;83.37;100825.44;6185534;23;20013;-81
2022/04/22 03:10:55;;;;;;;18.40;13.63;;;;;;;7.50;83.71;100799.78;6185653;23;20076;-80
2022/04/22 03:13:21;;;;;;;18.60;13.48;;;;;;;7.62;83.75;100820.53;6158765;23;20009;-80
2022/04/22 03:15:47;;;;;;;21.27;14.13;;;;;;;7.65;83.91;100834.97;6185270;23;20005;-79
2022/04/22 03:18:12;;;;;;;18.85;13.98;;;;;;;7.65;84.10;100829.84;6185575;23;20427;-81
2022/04/22 03:20:38;;;;;;;20.80;14.90;;;;;;;7.61;84.26;100833.47;6185500;23;20051;-80
2022/04/22 03:23:06;;;;;;;20.80;14.68;;;;;;;7.37;84.43;100814.97;6185664;23;20001;-80
2022/04/22 03:25:32;;;;;;;23.85;14.30;;;;;;;7.57;84.56;100835.38;6185621;23;20331;-79
2022/04/22 03:27:57;;;;;;;24.17;15.40;;;;;;;7.21;84.75;100788.41;6185248;23;20009;-80
2022/04/22 03:30:22;;;;;;;20.20;14.65;;;;;;;6.67;84.96;100703.72;6184813;22;20346;-80
2022/04/22 03:32:48;;;;;;;21.35;15.40;;;;;;;7.28;85.12;100806.00;6185676;23;20462;-81
2022/04/22 03:35:13;;;;;;;21.02;14.88;;;;;;;7.03;85.27;100778.13;6185062;23;20407;-80
2022/04/22 03:37:38;;;;;;;21.00;14.88;;;;;;;7.40;85.39;100838.78;6186242;23;20036;-80
2022/04/22 03:40:05;;;;;;;21.85;15.43;;;;;;;7.16;85.33;100798.88;6160130;23;20040;-79
2022/04/22 03:42:32;;;;;;;23.75;16.23;;;;;;;7.31;85.82;100828.97;6135734;23;20068;-79
2022/04/22 03:44:57;;;;;;;22.65;15.13;;;;;;;7.25;85.83;100818.16;6187165;23;20005;-79
2022/04/22 03:47:23;;;;;;;22.48;15.60;;;;;;;7.17;86.18;100811.63;6186835;23;20055;-79
2022/04/22 03:49:48;;;;;;;20.50;15.20;;;;;;;7.28;86.13;100828.28;6186676;23;20001;-81
2022/04/22 03:52:14;;;;;;;23.00;15.35;;;;;;;7.27;86.31;100822.28;6187173;23;20112;-79
2022/04/22 03:54:39;;;;;;;22.38;14.85;;;;;;;7.23;86.41;100823.38;6186901;23;19997;-80
2022/04/22 03:59:48;;;;;;;22.00;15.80;;;;;;;7.15;86.79;100810.06;6186857;23;20421;-81
2022/04/22 04:02:14;;;;;;;23.08;15.40;;;;;;;6.89;86.83;100771.09;6187196;23;20005;-81
2022/04/22 04:04:39;;;;;;;23.30;15.45;;;;;;;7.08;87.02;100795.84;6160265;23;20001;-79
2022/04/22 04:07:04;;;;;;;21.77;15.63;;;;;;;7.14;87.24;100816.09;6186854;23;20001;-81
2022/04/22 04:17:41;;;;;;;23.63;16.15;;;;;;;7.08;87.72;100812.13;6186750;23;20075;-80
2022/04/22 04:25:35;;;;;;;21.65;16.40;;;;;;;7.07;88.62;100813.00;6164301;23;20509;-80
2022/04/22 04:28:02;;;;;;;25.85;15.95;;;;;;;6.97;88.71;100801.50;6186884;23;20009;-80
2022/04/22 04:30:28;;;;;;;24.50;15.93;;;;;;;7.02;88.66;100796.16;6185209;22;20072;-81
2022/04/22 04:32:53;;;;;;;24.75;16.35;;;;;;;7.10;88.54;100815.44;6186525;23;20427;-79
2022/04/22 04:35:19;;;;;;;23.30;15.90;;;;;;;7.04;88.89;100794.34;6186159;23;20012;-80
2022/04/22 04:37:44;;;;;;;24.35;16.30;;;;;;;7.14;88.70;100805.84;6186401;23;20012;-81
2022/04/22 04:40:12;;;;;;;23.83;16.42;;;;;;;6.89;89.06;100760.84;6186764;23;20334;-78
2022/04/22 04:42:37;;;;;;;22.52;15.68;;;;;;;6.92;89.09;100766.72;6186716;23;20001;-80
2022/04/22 04:45:04;;;;;;;23.95;16.80;;;;;;;6.98;89.26;100780.09;6159942;23;20493;-81
2022/04/22 04:47:29;;;;;;;25.88;16.75;;;;;;;7.04;89.40;100784.09;6186625;23;20032;-80
2022/04/22 04:50:00;;;;;;;25.00;16.27;;;;;;;6.01;89.60;100622.28;6187728;22;20343;-79
2022/04/22 04:52:36;;;;;;;22.23;16.40;;;;;;;6.00;90.06;100623.19;6185326;22;20028;-79
2022/04/22 04:55:15;;;;;;;24.80;16.75;;;;;;;6.04;89.79;100613.63;6186178;23;20032;-79
2022/04/22 04:57:42;;;;;;;23.83;16.13;;;;;;;7.29;90.06;100810.22;6185894;23;20091;-81
2022/04/22 05:00:09;;;;;;;24.85;17.50;;;;;;;7.13;90.29;100775.94;6186442;23;20327;-80
2022/04/22 05:02:35;;;;;;;26.73;17.42;;;;;;;7.39;90.24;100808.88;6186466;23;20076;-81
2022/04/22 05:05:01;;;;;;;25.50;17.92;;;;;;;7.46;90.46;100817.06;6186150;23;20001;-80
2022/04/22 05:07:27;;;;;;;27.10;18.00;;;;;;;7.33;89.96;100783.47;6185842;23;19997;-80
2022/04/22 05:09:52;;;;;;;27.60;18.42;;;;;;;7.56;90.18;100808.00;6186156;23;20028;-81
2022/04/22 05:12:18;;;;;;;24.08;17.63;;;;;;;7.61;90.09;100813.75;6186407;23;20005;-81
2022/04/22 05:14:46;;;;;;;27.98;17.55;;;;;;;7.52;90.05;100785.13;6186413;23;20005;-78
2022/04/22 05:17:11;;;;;;;25.15;18.15;;;;;;;7.66;90.06;100801.47;6185794;23;20013;-78
2022/04/22 05:19:37;;;;;;;26.30;19.00;;;;;;;7.66;89.93;100780.91;6186171;23;20044;-80
2022/04/22 05:22:02;;;;;;;29.00;19.40;;;;;;;7.93;89.76;100811.25;6186010;23;20437;-79
2022/04/22 05:24:28;;;;;;;29.20;18.67;;;;;;;7.86;89.75;100790.16;6186364;23;20016;-78
2022/04/22 05:26:53;;;;;;;27.48;19.33;;;;;;;8.10;nan;100818.91;6186240;23;20425;-76
2022/04/22 05:34:46;;;;;;;28.33;19.75;;;;;;;8.20;89.30;100781.50;6185919;23;20019;-78
2022/04/22 05:37:11;;;;;;;29.98;20.52;;;;;;;8.39;89.25;100811.44;6185964;23;20084;-76
2022/04/22 05:39:37;;;;;;;31.05;22.83;;;;;;;8.42;88.95;100798.38;6185854;23;20383;-77
2022/04/22 05:42:02;;;;;;;33.13;22.08;;;;;;;8.51;88.90;100811.59;6185849;23;20001;-79
2022/04/22 05:44:28;;;;;;;28.60;20.33;;;;;;;8.33;88.48;100761.09;6185138;23;20459;-80
2022/04/22 05:46:54;;;;;;;31.20;20.60;;;;;;;8.80;88.10;100807.41;6185866;23;20001;-77
2022/04/22 05:49:19;;;;;;;29.00;20.95;;;;;;;9.26;87.32;100815.09;6185828;23;20101;-77
2022/04/22 05:51:44;;;;;;;30.63;21.70;;;;;;;9.82;84.47;100813.50;6185373;23;20009;-77
2022/04/22 05:54:10;;;;;;;29.98;21.45;;;;;;;10.77;82.12;100815.41;6185914;23;20012;-78
2022/04/22 05:56:35;;;;;;;26.90;19.02;;;;;;;11.88;76.53;100815.78;6185836;23;20005;-78
2022/04/22 05:59:02;;;;;;;24.55;16.88;;;;;;;12.60;72.32;100797.78;6185342;23;20005;-77
2022/04/22 06:01:27;;;;;;;23.15;17.40;;;;;;;13.49;69.15;100820.63;6187382;23;20001;-77
2022/04/22 06:03:52;;;;;;;21.48;16.42;;;;;;;13.72;66.79;100777.34;6185240;23;20373;-78
2022/04/22 06:06:18;;;;;;;24.17;17.27;;;;;;;13.96;64.83;100793.66;6185467;23;20005;-78
2022/04/22 06:11:27;;;;;;;23.45;18.00;;;;;;;13.63;64.15;100701.03;6185720;23;20016;-78
2022/04/22 06:13:52;;;;;;;21.63;17.17;;;;;;;13.62;62.98;100677.81;6185882;23;20001;-80
2022/04/22 06:16:18;;;;;;;23.00;16.63;;;;;;;14.76;62.47;100802.94;6185445;23;20005;-80
2022/04/22 06:18:43;;;;;;;22.10;15.77;;;;;;;15.30;60.17;100809.78;6185833;23;20005;-79
2022/04/22 06:21:30;;;;;;;21.48;16.55;;;;;;;14.96;60.14;100763.16;6184804;23;20009;-80
2022/04/22 06:23:57;;;;;;;19.42;16.15;;;;;;;14.98;59.84;100763.84;6185205;23;20001;-82
2022/04/22 06:26:23;;;;;;;20.85;16.13;;;;;;;15.29;59.19;100797.72;6158987;23;20016;-81
2022/04/22 06:28:48;;;;;;;20.17;16.85;;;;;;;15.43;59.48;100774.78;6185780;23;20009;-85
2022/04/22 06:31:14;;;;;;;22.38;16.75;;;;;;;15.57;57.75;100752.81;6183819;23;20072;-81
2022/04/22 06:33:40;;;;;;;21.83;15.30;;;;;;;15.90;58.05;100797.78;6185285;23;20001;-83
2022/04/22 06:36:13;;;;;;;20.48;15.85;;;;;;;16.10;57.48;100783.03;6185350;23;20005;-84
2022/04/22 06:49:03;;;;;;;20.52;15.95;;;;;;;15.22;58.66;100800.00;6185502;23;20033;-81
2022/04/22 06:51:34;;;;;;;22.02;16.73;;;;;;;13.64;61.24;100689.72;6185498;23;20442;-80
2022/04/22 06:54:09;;;;;;;21.00;17.40;;;;;;;12.68;63.41;100641.78;6185543;23;20056;-81
2022/04/22 06:57:02;;;;;;;22.55;17.08;;;;;;;13.04;64.89;100783.34;6185448;23;20005;-81
2022/04/22 07:00:11;;;;;;;23.20;17.77;;;;;;;13.24;66.48;100802.66;6185022;23;20009;-81
2022/04/22 07:02:45;;;;;;;20.85;16.67;;;;;;;12.39;65.36;100649.09;6185659;23;20021;-81
2022/04/22 07:05:12;;;;;;;22.92;17.70;;;;;;;13.02;66.63;100803.38;6185190;23;20008;-81
2022/04/22 07:07:38;;;;;;;20.52;17.08;;;;;;;13.08;67.03;100805.53;6185425;23;20064;-81
2022/04/22 07:10:07;;;;;;;25.10;18.15;;;;;;;12.83;67.70;100794.34;6185118;23;20001;-81
2022/04/22 07:12:32;;;;;;;22.67;17.45;;;;;;;12.80;67.16;100754.91;6186325;23;20415;-81
2022/04/22 07:18:13;;;;;;;24.77;18.50;;;;;;;12.79;68.54;100798.13;6187630;23;20024;-82
2022/04/22 07:21:07;;;;;;;22.20;17.80;;;;;;;12.67;68.14;100804.16;6188264;23;20036;-84
2022/04/22 07:23:32;;;;;;;21.70;17.80;;;;;;;12.38;69.23;100787.28;6187250;23;20074;-82
2022/04/22 07:26:10;;;;;;;25.55;17.70;;;;;;;11.09;69.71;100607.41;6186823;23;20083;-82
2022/04/22 07:32:42;;;;;;;20.17;16.67;;;;;;;12.18;70.36;100791.28;6186849;23;20023;-78
2022/04/22 07:42:24;;;;;;;22.70;18.30;;;;;;;12.12;70.98;100779.63;6194417;22;20039;-81
2022/04/22 07:47:54;;;;;;;21.58;17.63;;;;;;;11.77;69.97;100666.44;6157245;23;20149;-81
2022/04/22 07:54:24;;;;;;;25.52;18.17;;;;;;;12.81;69.59;100783.28;6157192;23;20023;-80
2022/04/22 07:56:59;;;;;;;24.33;18.02;;;;;;;11.75;69.34;100606.22;6156574;23;20060;-77
2022/04/22 07:59:34;;;;;;;20.35;16.98;;;;;;;11.66;68.46;100599.09;6156983;23;20450;-79
2022/04/22 08:02:11;;;;;;;22.42;18.00;;;;;;;12.75;68.51;100777.72;6157415;23;20001;-79
2022/04/22 08:07:20;;;;;;;23.35;17.50;;;;;;;11.67;68.72;100597.34;6186463;23;20040;-81
2022/04/22 08:09:46;;;;;;;21.40;16.85;;;;;;;12.88;68.58;100773.28;6186061;23;20027;-76
2022/04/22 08:12:13;;;;;;;21.05;16.20;;;;;;;12.70;68.23;100752.16;6186072;23;20005;-77
2022/04/22 08:14:39;;;;;;;22.35;16.92;;;;;;;12.75;67.93;100772.53;6186983;23;20001;-76
2022/04/22 08:17:05;;;;;;;20.13;16.35;;;;;;;12.59;68.21;100752.09;6186899;23;20029;-78
2022/04/22 08:19:30;;;;;;;21.73;16.33;;;;;;;12.74;68.52;100773.47;6186557;23;20327;-77
2022/04/22 08:21:57;;;;;;;20.88;16.35;;;;;;;12.76;68.96;100782.78;6186945;23;20043;-81
2022/04/22 08:24:28;;;;;;;23.42;18.10;;;;;;;12.64;68.52;100753.41;6186277;23;20001;-79
2022/04/22 08:26:55;;;;;;;21.63;17.20;;;;;;;12.88;67.97;100768.09;6159988;23;20101;-77
2022/04/22 08:29:20;;;;;;;20.75;18.08;;;;;;;13.04;68.27;100758.25;6186835;23;20009;-78
2022/04/22 08:31:46;;;;;;;21.45;17.63;;;;;;;13.17;67.00;100760.75;6186495;23;20139;-79
2022/04/22 08:34:11;;;;;;;20.55;16.60;;;;;;;13.11;67.29;100741.31;6186378;23;20124;-78
2022/04/22 08:36:37;;;;;;;22.50;16.77;;;;;;;13.26;67.38;100761.84;6186220;23;20087;-80
2022/04/22 08:39:04;;;;;;;21.10;16.58;;;;;;;13.28;66.31;100755.63;6186329;23;20446;-79
2022/04/22 08:41:34;;;;;;;23.92;17.27;;;;;;;13.32;66.18;100758.81;6186309;23;20080;-78
2022/04/22 08:44:00;;;;;;;20.05;16.75;;;;;;;13.42;66.29;100767.56;6186789;23;20009;-76
2022/04/22 08:51:55;;;;;;;20.40;16.42;;;;;;;13.76;64.16;100750.22;6186273;23;20063;-80
2022/04/22 08:54:22;;;;;;;19.95;16.52;;;;;;;13.76;64.35;100750.22;6186681;23;20008;-79
2022/04/22 08:56:49;;;;;;;20.95;16.90;;;;;;;13.64;64.99;100744.22;6186279;23;20005;-80
2022/04/22 08:59:15;;;;;;;21.63;17.23;;;;;;;13.67;65.20;100725.81;6187118;23;20000;-82
2022/04/22 09:02:10;;;;;;;21.85;17.33;;;;;;;14.13;65.23;100736.94;6158591;23;20013;-81
2022/04/22 09:04:41;;;;;;;21.25;17.58;;;;;;;13.54;63.52;100631.72;6184640;23;20109;-80
2022/04/22 09:10:35;;;;;;;23.58;17.63;;;;;;;14.60;62.91;100736.59;6185492;23;20393;-86
2022/04/22 09:13:10;;;;;;;20.48;16.95;;;;;;;14.51;62.98;100732.16;6186281;23;20028;-81
2022/04/22 09:15:39;;;;;;;20.52;16.52;;;;;;;14.73;61.18;100727.78;6186250;23;20012;-83
2022/04/22 09:18:13;;;;;;;18.42;15.93;;;;;;;14.84;62.24;100699.97;6185742;23;20016;-81
2022/04/22 09:20:38;;;;;;;20.42;16.55;;;;;;;14.99;60.22;100718.69;6186184;23;20086;-80
2022/04/22 09:23:23;;;;;;;19.88;16.10;;;;;;;15.00;59.71;100715.13;6186366;23;19997;-82
2022/04/22 09:25:48;;;;;;;21.05;15.30;;;;;;;15.03;60.00;100712.25;6186337;23;20005;-82
2022/04/22 09:28:13;;;;;;;18.15;14.73;;;;;;;14.88;59.61;100690.16;6185639;23;20011;-80
2022/04/22 09:30:41;;;;;;;19.77;14.23;;;;;;;14.88;59.01;100708.34;6186069;23;20005;-81
2022/04/22 09:33:10;;;;;;;21.10;15.02;;;;;;;14.66;59.89;100706.69;6185743;23;20419;-80
2022/04/22 09:42:38;;;;;;;19.58;15.50;;;;;;;14.43;61.25;100684.31;6185471;23;20005;-80
2022/04/22 09:46:32;;;;;;;17.35;14.25;;;;;;;14.19;59.09;100625.63;6185658;23;20035;-78
2022/04/22 10:25:43;;;;;;;17.15;13.85;;;;;;;14.22;54.05;100489.50;6198642;22;20029;-83
2022/04/22 10:28:18;;;;;;;;;;;;;;;15.45;54.15;100654.97;6185677;23;20009;-80
2022/04/22 10:30:47;;;;;;;17.63;13.38;;;;;;;15.46;53.41;100654.84;6185110;23;19908;-81
2022/04/22 11:09:31;;;;;;;20.60;15.45;;;;;;;14.05;59.00;100628.50;6198034;22;20029;-85
2022/04/22 11:12:03;;;;;;;19.88;15.93;;;;;;;14.16;58.89;100641.47;6187200;23;20020;-82
2022/04/22 11:14:32;;;;;;;21.48;16.52;;;;;;;14.21;58.83;100638.50;6187138;23;20001;-82
2022/04/22 11:17:32;;;;;;;22.98;16.10;;;;;;;14.29;58.62;100636.91;6187270;23;20033;-81
2022/04/22 11:19:59;;;;;;;20.30;16.47;;;;;;;14.25;58.73;100611.31;6187654;23;20063;-80
2022/04/22 11:22:52;;;;;;;22.30;16.63;;;;;;;14.61;58.32;100636.91;6187148;23;20005;-81
2022/04/22 11:25:21;;;;;;;19.95;15.55;;;;;;;14.68;57.52;100636.41;6187023;23;20005;-79
2022/04/22 11:27:48;;;;;;;22.42;15.73;;;;;;;14.64;57.33;100628.84;6186963;23;20012;-81
2022/04/22 11:30:14;;;;;;;23.83;16.73;;;;;;;14.47;57.95;100626.81;6186202;23;20072;-81
2022/04/22 11:32:45;;;;;;;22.75;16.08;;;;;;;14.49;58.14;100643.09;6186985;23;20076;-80
2022/04/22 11:35:19;;;;;;;26.20;17.83;;;;;;;14.38;58.21;100637.13;6187187;23;19997;-80
2022/04/22 11:37:44;;;;;;;23.02;16.58;;;;;;;14.14;58.28;100612.19;6159554;23;20338;-82
2022/04/22 11:40:18;;;;;;;22.75;16.08;;;;;;;14.21;58.54;100631.50;6187192;23;20009;-82
2022/04/22 11:42:46;;;;;;;23.65;16.58;;;;;;;14.27;59.37;100638.81;6187060;23;20005;-82
2022/04/22 11:45:16;;;;;;;27.75;15.70;;;;;;;14.33;58.51;100627.09;6186429;23;20028;-81
2022/04/22 11:47:42;;;;;;;20.17;15.77;;;;;;;14.54;58.47;100635.75;6186762;23;20144;-81
2022/04/22 11:50:09;;;;;;;20.80;15.85;;;;;;;14.70;57.97;100631.88;6187222;23;20407;-82
2022/04/22 11:52:35;;;;;;;19.15;14.65;;;;;;;14.93;56.57;100641.16;6186883;23;20005;-82
2022/04/22 11:55:02;;;;;;;20.20;15.45;;;;;;;14.97;55.92;100626.16;6187718;23;20056;-83
2022/04/22 11:57:32;;;;;;;21.13;15.27;;;;;;;15.05;55.85;100618.53;6186694;23;20117;-87
2022/04/22 12:05:33;;;;;;;;;;;;;;;15.69;53.97;100608.59;6188485;23;20020;-84
2022/04/22 12:08:22;;;;;;;18.50;13.68;;;;;;;15.69;54.33;100616.41;6187426;23;19987;-92
2022/04/22 12:10:49;;;;;;;18.42;13.82;;;;;;;15.57;52.72;100608.84;6060123;23;20346;-85
2022/04/22 12:13:17;;;;;;;18.10;14.20;;;;;;;15.54;53.66;100609.09;6066826;23;20158;-86
2022/04/22 12:15:48;;;;;;;21.02;14.75;;;;;;;15.33;53.18;100583.97;6066826;23;20011;-86
2022/04/22 12:18:36;;;;;;;19.30;14.07;;;;;;;15.47;53.37;100582.78;6067084;23;20015;-90
2022/04/22 12:21:03;;;;;;;18.63;13.50;;;;;;;15.38;53.06;100567.97;6066615;23;20014;-86
2022/04/22 12:23:39;;;;;;;22.48;14.13;;;;;;;15.54;52.97;100598.69;6066908;23;20093;-92
2022/04/22 12:26:06;;;;;;;17.55;12.93;;;;;;;15.31;52.88;100554.66;6067134;23;20018;-83
2022/04/22 12:28:32;;;;;;;21.10;14.00;;;;;;;15.41;52.43;100575.50;6068195;23;20007;-84
2022/04/22 12:31:08;;;;;;;17.15;12.48;;;;;;;14.98;53.52;100555.81;6066540;23;20050;-85
2022/04/22 12:33:40;;;;;;;16.73;12.73;;;;;;;14.81;53.19;100562.44;6117039;23;20029;-86
2022/04/22 12:36:15;;;;;;;21.38;14.32;;;;;;;14.03;53.91;100464.25;6186925;23;20047;-87
2022/04/22 12:38:53;;;;;;;19.25;13.75;;;;;;;14.02;54.15;100480.78;6187296;23;20008;-91
2022/04/22 12:44:28;;;;;;;15.85;12.30;;;;;;;13.82;55.88;100466.84;6187119;23;20051;-90
2022/04/22 12:53:27;;;;;;;19.98;12.43;;;;;;;15.30;54.85;100581.63;6186395;23;20031;-87
2022/04/22 12:56:03;;;;;;;16.23;12.38;;;;;;;15.29;53.92;100516.75;6186833;23;20008;-90
2022/04/22 13:01:06;;;;;;;20.08;13.43;;;;;;;15.45;51.69;100437.19;6216059;23;20354;-85
2022/04/22 13:03:36;;;;;;;18.65;13.35;;;;;;;15.62;50.60;100427.88;6216572;23;20091;-90
2022/04/22 13:06:08;;;;;;;16.63;12.85;;;;;;;15.55;52.32;100400.75;6216040;23;20030;-87
2022/04/22 13:08:45;;;;;;;18.98;13.00;;;;;;;15.92;50.90;100437.28;6215829;23;20370;-80
2022/04/22 13:11:18;;;;;;;18.25;12.70;;;;;;;16.35;50.52;100503.69;6216059;23;20075;-86
2022/04/22 13:13:54;;;;;;;18.13;13.05;;;;;;;16.44;51.23;100504.63;6216365;23;20008;-89
2022/04/22 13:16:27;;;;;;;18.45;12.73;;;;;;;15.93;50.18;100425.13;6215645;23;20007;-80
2022/04/22 13:18:56;;;;;;;23.98;12.13;;;;;;;16.15;49.14;100486.47;6216068;23;20008;-80
2022/04/22 13:25:06;;;;;;;17.33;12.27;;;;;;;16.64;49.46;100553.97;6215978;23;20059;-87
2022/04/22 13:28:00;;;;;;;19.27;12.13;;;;;;;16.08;49.25;100446.31;6215815;23;20013;-79
2022/04/22 13:30:46;;;;;;;16.67;11.35;;;;;;;15.98;48.67;100441.13;6215517;23;20000;-78
2022/04/22 13:33:20;;;;;;;17.40;11.75;;;;;;;15.60;49.07;100382.97;6214136;23;20013;-80
2022/04/22 13:35:58;;;;;;;15.77;11.20;;;;;;;16.13;48.84;100437.13;6215674;23;20004;-78
2022/04/22 13:43:37;;;;;;;17.40;11.65;;;;;;;16.02;48.82;100435.50;6185600;23;20017;-78
2022/04/22 13:52:44;;;;;;;17.10;12.60;;;;;;;16.70;48.95;100530.91;6185929;23;20099;-79
2022/04/22 13:55:50;;;;;;;17.35;11.65;;;;;;;16.77;49.29;100531.97;6185682;23;20012;-80
2022/04/22 14:08:08;;;;;;;18.83;12.27;;;;;;;16.11;48.36;100431.22;6185135;22;20024;-80
2022/04/22 14:10:34;;;;;;;16.70;12.38;;;;;;;15.71;48.88;100397.59;6185990;22;20045;-78
2022/04/22 14:13:35;;;;;;;20.10;12.07;;;;;;;15.30;49.26;100350.09;6185652;23;20043;-78
2022/04/22 14:16:06;;;;;;;17.00;12.27;;;;;;;15.48;50.18;100429.13;6087493;23;20016;-78
2022/04/22 14:18:40;;;;;;;;;;;;;;;16.05;50.34;100517.75;6185893;23;20323;-77
2022/04/22 14:21:08;;;;;;;17.20;13.80;;;;;;;15.37;50.65;100433.63;6185374;23;19908;-79
2022/04/22 14:23:40;;;;;;;18.73;12.57;;;;;;;14.81;51.43;100354.47;6185378;23;20005;-77
2022/04/22 14:26:09;;;;;;;18.50;12.50;;;;;;;15.17;52.26;100436.22;6159182;23;20009;-78
2022/04/22 14:28:50;;;;;;;18.65;12.30;;;;;;;14.61;52.18;100361.44;6182542;22;20032;-77
2022/04/22 14:31:15;;;;;;;18.67;13.43;;;;;;;15.55;52.69;100514.47;6158812;23;20338;-77
2022/04/22 14:33:40;;;;;;;21.13;12.65;;;;;;;15.54;52.58;100512.81;6185428;23;20021;-78
2022/04/22 14:36:06;;;;;;;17.13;12.82;;;;;;;15.31;52.16;100468.00;6159553;23;20084;-77
2022/04/22 14:38:32;;;;;;;18.42;12.30;;;;;;;15.50;51.55;100512.25;6185646;23;20476;-77
2022/04/22 14:40:57;;;;;;;17.50;11.73;;;;;;;15.51;51.81;100508.69;6185572;23;20080;-80
2022/04/22 14:43:22;;;;;;;15.65;11.30;;;;;;;15.44;50.98;100500.63;6185307;23;20005;-80
2022/04/22 14:45:48;;;;;;;16.33;11.00;;;;;;;15.52;50.63;100506.91;6185642;23;20001;-80
2022/04/22 14:48:13;;;;;;;19.55;12.45;;;;;;;15.28;51.10;100476.09;6185057;23;20005;-80
2022/04/22 14:50:40;;;;;;;17.63;11.05;;;;;;;15.35;50.72;100478.00;6185276;23;20454;-81
2022/04/22 14:53:09;;;;;;;17.42;10.55;;;;;;;14.69;51.60;100383.34;6184097;22;20017;-79
2022/04/22 14:55:36;;;;;;;16.95;11.20;;;;;;;14.92;52.27;100414.16;6184093;22;20336;-81
2022/04/22 14:58:02;;;;;;;14.70;10.27;;;;;;;15.46;51.76;100503.91;6185122;23;20015;-80